sensor_id;sensor_type;location;lat;lon;timestamp;pressure;altitude;pressure_sealevel;temperature;humidity
60307;BME280;46155;52.364;6.580;2022-08-01T03:01:18;101407.34;;;18.33;100.00
60307;BME280;46155;52.364;6.580;2022-08-01T03:03:45;101403.75;;;18.31;100.00
60307;BME280;46155;52.364;6.580;2022-08-01T03:06:11;101409.13;;;18.32;100.00
60307;BME280;46155;52.364;6.580;2022-08-01T03:08:38;101404.56;;;18.30;100.00
60307;BME280;46155;52.364;6.580;2022-08-01T03:11:04;101409.91;;;18.30;100.00
60307;BME280;46155;52.364;6.580;2022-08-01T03:13:32;101409.00;;;18.29;100.00
60307;BME280;46155;52.364;6.580;2022-08-01T03:15:58;101406.41;;;18.31;100.00
60307;BME280;46155;52.364;6.580;2022-08-01T03:18:25;101423.25;;;18.31;100.00
60307;BME280;46155;52.364;6.580;2022-08-01T03:20:52;101416.00;;;18.27;100.00
60307;BME280;46155;52.364;6.580;2022-08-01T03:23:20;101410.81;;;18.30;100.00
60307;BME280;46155;52.364;6.580;2022-08-01T03:25:49;101414.38;;;18.31;100.00
60307;BME280;46155;52.364;6.580;2022-08-01T03:28:16;101417.91;;;18.31;100.00
60307;BME280;46155;52.364;6.580;2022-08-01T03:30:44;101409.13;;;18.32;100.00
60307;BME280;46155;52.364;6.580;2022-08-01T03:33:10;101414.47;;;18.34;100.00
60307;BME280;46155;52.364;6.580;2022-08-01T03:35:40;101421.50;;;18.32;100.00
60307;BME280;46155;52.364;6.580;2022-08-01T03:38:08;101417.03;;;18.31;100.00
60307;BME280;46155;52.364;6.580;2022-08-01T03:40:45;101414.31;;;18.29;100.00
60307;BME280;46155;52.364;6.580;2022-08-01T03:43:30;101414.25;;;18.28;100.00
60307;BME280;46155;52.364;6.580;2022-08-01T03:46:03;101415.22;;;18.30;100.00
60307;BME280;46155;52.364;6.580;2022-08-01T03:48:33;101415.25;;;18.31;100.00
60307;BME280;46155;52.364;6.580;2022-08-01T03:51:01;101418.06;;;18.34;100.00
60307;BME280;46155;52.364;6.580;2022-08-01T03:53:30;101419.75;;;18.32;100.00
60307;BME280;46155;52.364;6.580;2022-08-01T03:55:56;101417.03;;;18.31;100.00
60307;BME280;46155;52.364;6.580;2022-08-01T03:58:23;101417.16;;;18.34;100.00
60307;BME280;46155;52.364;6.580;2022-08-01T04:00:49;101416.19;;;18.32;100.00
60307;BME280;46155;52.364;6.580;2022-08-01T04:03:15;101412.50;;;18.28;100.00
60307;BME280;46155;52.364;6.580;2022-08-01T04:05:42;101418.59;;;18.26;100.00
60307;BME280;46155;52.364;6.580;2022-08-01T04:08:07;101417.69;;;18.25;100.00
60307;BME280;46155;52.364;6.580;2022-08-01T04:10:33;101415.94;;;18.26;100.00
60307;BME280;46155;52.364;6.580;2022-08-01T04:12:58;101416.81;;;18.24;100.00
60307;BME280;46155;52.364;6.580;2022-08-01T04:15:24;101413.16;;;18.22;100.00
60307;BME280;46155;52.364;6.580;2022-08-01T04:17:49;101420.78;;;18.13;100.00
60307;BME280;46155;52.364;6.580;2022-08-01T04:20:14;101424.09;;;18.08;100.00
60307;BME280;46155;52.364;6.580;2022-08-01T04:22:41;101423.91;;;18.03;100.00
60307;BME280;46155;52.364;6.580;2022-08-01T04:25:11;101429.16;;;18.01;100.00
60307;BME280;46155;52.364;6.580;2022-08-01T04:27:39;101436.00;;;17.95;100.00
60307;BME280;46155;52.364;6.580;2022-08-01T04:30:07;101437.44;;;17.88;100.00
60307;BME280;46155;52.364;6.580;2022-08-01T04:32:35;101444.47;;;17.87;100.00
60307;BME280;46155;52.364;6.580;2022-08-01T04:35:05;101446.19;;;17.85;100.00
60307;BME280;46155;52.364;6.580;2022-08-01T04:37:32;101444.31;;;17.83;100.00
60307;BME280;46155;52.364;6.580;2022-08-01T04:39:59;101439.91;;;17.83;100.00
60307;BME280;46155;52.364;6.580;2022-08-01T04:42:25;101449.78;;;17.87;100.00
60307;BME280;46155;52.364;6.580;2022-08-01T04:44:52;101459.47;;;17.85;100.00
60307;BME280;46155;52.364;6.580;2022-08-01T04:47:18;101452.34;;;17.84;100.00
60307;BME280;46155;52.364;6.580;2022-08-01T04:49:44;101458.41;;;17.82;100.00
60307;BME280;46155;52.364;6.580;2022-08-01T04:52:11;101465.19;;;17.73;100.00
60307;BME280;46155;52.364;6.580;2022-08-01T04:54:36;101472.03;;;17.68;100.00
60307;BME280;46155;52.364;6.580;2022-08-01T04:57:03;101465.97;;;17.71;100.00
60307;BME280;46155;52.364;6.580;2022-08-01T04:59:29;101462.66;;;17.77;100.00
60307;BME280;46155;52.364;6.580;2022-08-01T05:02:08;101467.97;;;17.77;100.00
60307;BME280;46155;52.364;6.580;2022-08-01T05:04:34;101471.16;;;17.68;100.00
60307;BME280;46155;52.364;6.580;2022-08-01T05:06:59;101468.63;;;17.71;100.00
60307;BME280;46155;52.364;6.580;2022-08-01T05:09:25;101478.06;;;17.64;100.00
60307;BME280;46155;52.364;6.580;2022-08-01T05:11:50;101478.50;;;17.54;100.00
60307;BME280;46155;52.364;6.580;2022-08-01T05:14:16;101477.09;;;17.62;100.00
60307;BME280;46155;52.364;6.580;2022-08-01T05:16:41;101477.22;;;17.65;100.00
60307;BME280;46155;52.364;6.580;2022-08-01T05:19:07;101476.28;;;17.65;100.00
60307;BME280;46155;52.364;6.580;2022-08-01T05:21:33;101481.47;;;17.62;100.00
60307;BME280;46155;52.364;6.580;2022-08-01T05:23:58;101482.34;;;17.61;100.00
60307;BME280;46155;52.364;6.580;2022-08-01T05:26:24;101475.91;;;17.55;100.00
60307;BME280;46155;52.364;6.580;2022-08-01T05:28:49;101484.00;;;17.59;100.00
60307;BME280;46155;52.364;6.580;2022-08-01T05:31:14;101482.06;;;17.54;100.00
60307;BME280;46155;52.364;6.580;2022-08-01T05:33:40;101489.91;;;17.51;100.00
60307;BME280;46155;52.364;6.580;2022-08-01T05:36:05;101484.06;;;17.60;100.00
60307;BME280;46155;52.364;6.580;2022-08-01T05:38:30;101485.25;;;17.67;100.00
60307;BME280;46155;52.364;6.580;2022-08-01T05:40:56;101486.28;;;17.70;100.00
60307;BME280;46155;52.364;6.580;2022-08-01T05:43:21;101492.50;;;17.71;100.00
60307;BME280;46155;52.364;6.580;2022-08-01T05:45:46;101487.44;;;17.77;100.00
60307;BME280;46155;52.364;6.580;2022-08-01T05:48:12;101488.50;;;17.81;100.00
60307;BME280;46155;52.364;6.580;2022-08-01T05:50:37;101501.97;;;17.85;100.00
60307;BME280;46155;52.364;6.580;2022-08-01T05:53:02;101494.94;;;17.87;100.00
60307;BME280;46155;52.364;6.580;2022-08-01T05:55:28;101496.66;;;17.85;100.00
60307;BME280;46155;52.364;6.580;2022-08-01T05:57:53;101498.47;;;17.86;100.00
60307;BME280;46155;52.364;6.580;2022-08-01T06:00:18;101509.88;;;17.84;100.00
60307;BME280;46155;52.364;6.580;2022-08-01T06:02:44;101509.63;;;17.78;100.00
60307;BME280;46155;52.364;6.580;2022-08-01T06:05:10;101514.00;;;17.77;100.00
60307;BME280;46155;52.364;6.580;2022-08-01T06:07:35;101502.78;;;17.84;100.00
60307;BME280;46155;52.364;6.580;2022-08-01T06:10:01;101506.38;;;17.85;100.00
60307;BME280;46155;52.364;6.580;2022-08-01T06:12:26;101516.00;;;17.83;100.00
60307;BME280;46155;52.364;6.580;2022-08-01T06:14:51;101516.13;;;17.86;100.00
60307;BME280;46155;52.364;6.580;2022-08-01T06:17:17;101517.78;;;17.82;100.00
60307;BME280;46155;52.364;6.580;2022-08-01T06:19:42;101517.91;;;17.85;100.00
60307;BME280;46155;52.364;6.580;2022-08-01T06:22:07;101518.03;;;17.88;100.00
60307;BME280;46155;52.364;6.580;2022-08-01T06:24:33;101511.97;;;17.91;100.00
60307;BME280;46155;52.364;6.580;2022-08-01T06:26:58;101512.09;;;17.94;100.00
60307;BME280;46155;52.364;6.580;2022-08-01T06:29:23;101518.34;;;17.95;100.00
60307;BME280;46155;52.364;6.580;2022-08-01T06:31:49;101520.13;;;17.96;100.00
60307;BME280;46155;52.364;6.580;2022-08-01T06:34:14;101522.84;;;17.97;100.00
60307;BME280;46155;52.364;6.580;2022-08-01T06:36:40;101528.97;;;17.95;100.00
60307;BME280;46155;52.364;6.580;2022-08-01T06:39:06;101525.66;;;18.00;100.00
60307;BME280;46155;52.364;6.580;2022-08-01T06:41:31;101529.34;;;18.04;100.00
60307;BME280;46155;52.364;6.580;2022-08-01T06:43:57;101539.19;;;18.06;100.00
60307;BME280;46155;52.364;6.580;2022-08-01T06:46:22;101536.72;;;18.11;100.00
60307;BME280;46155;52.364;6.580;2022-08-01T06:48:47;101533.75;;;18.03;100.00
60307;BME280;46155;52.364;6.580;2022-08-01T06:51:13;101542.16;;;17.93;100.00
60307;BME280;46155;52.364;6.580;2022-08-01T06:53:41;101542.09;;;17.92;100.00
60307;BME280;46155;52.364;6.580;2022-08-01T06:56:07;101547.47;;;17.93;100.00
60307;BME280;46155;52.364;6.580;2022-08-01T06:58:34;101548.06;;;17.87;100.00
60307;BME280;46155;52.364;6.580;2022-08-01T07:01:00;101548.94;;;17.86;100.00
60307;BME280;46155;52.364;6.580;2022-08-01T07:03:25;101549.66;;;17.82;100.00
60307;BME280;46155;52.364;6.580;2022-08-01T07:05:51;101550.59;;;17.84;100.00
60307;BME280;46155;52.364;6.580;2022-08-01T07:08:16;101555.72;;;17.80;100.00
60307;BME280;46155;52.364;6.580;2022-08-01T07:10:41;101554.84;;;17.79;100.00
60307;BME280;46155;52.364;6.580;2022-08-01T07:13:08;101562.09;;;17.83;100.00
60307;BME280;46155;52.364;6.580;2022-08-01T07:15:33;101565.72;;;17.85;100.00
60307;BME280;46155;52.364;6.580;2022-08-01T07:17:59;101556.78;;;17.83;100.00
60307;BME280;46155;52.364;6.580;2022-08-01T07:20:26;101566.72;;;17.68;100.00
60307;BME280;46155;52.364;6.580;2022-08-01T07:22:51;101559.47;;;17.64;100.00
60307;BME280;46155;52.364;6.580;2022-08-01T07:25:17;101559.47;;;17.64;100.00
60307;BME280;46155;52.364;6.580;2022-08-01T07:27:42;101567.56;;;17.67;100.00
60307;BME280;46155;52.364;6.580;2022-08-01T07:30:08;101559.88;;;17.53;100.00
60307;BME280;46155;52.364;6.580;2022-08-01T07:32:34;101560.94;;;17.57;100.00
60307;BME280;46155;52.364;6.580;2022-08-01T07:35:00;101567.38;;;17.62;100.00
60307;BME280;46155;52.364;6.580;2022-08-01T07:37:26;101568.00;;;17.57;100.00
60307;BME280;46155;52.364;6.580;2022-08-01T07:39:51;101565.34;;;17.57;100.00
60307;BME280;46155;52.364;6.580;2022-08-01T07:42:16;101577.50;;;17.51;100.00
60307;BME280;46155;52.364;6.580;2022-08-01T07:44:42;101579.38;;;17.54;100.00
60307;BME280;46155;52.364;6.580;2022-08-01T07:47:07;101577.69;;;17.56;100.00
60307;BME280;46155;52.364;6.580;2022-08-01T07:49:33;101586.16;;;17.67;100.00
60307;BME280;46155;52.364;6.580;2022-08-01T07:51:58;101592.16;;;17.43;100.00
60307;BME280;46155;52.364;6.580;2022-08-01T07:54:23;101589.50;;;17.43;100.00
60307;BME280;46155;52.364;6.580;2022-08-01T07:56:50;101599.44;;;17.28;100.00
60307;BME280;46155;52.364;6.580;2022-08-01T07:59:15;101597.78;;;17.49;100.00
60307;BME280;46155;52.364;6.580;2022-08-01T08:01:41;101600.63;;;17.54;100.00
60307;BME280;46155;52.364;6.580;2022-08-01T08:04:06;101608.66;;;17.55;100.00
60307;BME280;46155;52.364;6.580;2022-08-01T08:06:32;101605.19;;;17.57;100.00
60307;BME280;46155;52.364;6.580;2022-08-01T08:08:57;101602.47;;;17.76;100.00
60307;BME280;46155;52.364;6.580;2022-08-01T08:11:22;101599.75;;;17.94;100.00
60307;BME280;46155;52.364;6.580;2022-08-01T08:13:48;101616.06;;;18.02;100.00
60307;BME280;46155;52.364;6.580;2022-08-01T08:16:13;101615.00;;;17.98;98.17
60307;BME280;46155;52.364;6.580;2022-08-01T08:18:38;101617.34;;;17.91;97.38
60307;BME280;46155;52.364;6.580;2022-08-01T08:21:04;101616.31;;;17.88;99.03
60307;BME280;46155;52.364;6.580;2022-08-01T08:23:29;101621.63;;;17.88;99.23
60307;BME280;46155;52.364;6.580;2022-08-01T08:26:13;101631.78;;;17.78;100.00
60307;BME280;46155;52.364;6.580;2022-08-01T08:28:38;101626.09;;;17.89;100.00
60307;BME280;46155;52.364;6.580;2022-08-01T08:31:03;101629.97;;;17.77;97.43
60307;BME280;46155;52.364;6.580;2022-08-01T08:33:29;101636.66;;;17.88;99.90
60307;BME280;46155;52.364;6.580;2022-08-01T08:35:54;101636.00;;;17.92;99.84
60307;BME280;46155;52.364;6.580;2022-08-01T08:38:20;101632.47;;;17.93;98.21
60307;BME280;46155;52.364;6.580;2022-08-01T08:40:45;101644.16;;;17.97;98.59
60307;BME280;46155;52.364;6.580;2022-08-01T08:43:11;101647.78;;;17.99;98.01
60307;BME280;46155;52.364;6.580;2022-08-01T08:45:37;101639.25;;;18.06;99.64
60307;BME280;46155;52.364;6.580;2022-08-01T08:48:04;101644.00;;;18.13;97.75
60307;BME280;46155;52.364;6.580;2022-08-01T08:50:30;101649.78;;;18.04;95.00
60307;BME280;46155;52.364;6.580;2022-08-01T08:52:55;101650.91;;;18.10;97.81
60307;BME280;46155;52.364;6.580;2022-08-01T08:55:22;101655.59;;;18.15;96.46
60307;BME280;46155;52.364;6.580;2022-08-01T08:57:48;101649.69;;;18.22;97.02
60307;BME280;46155;52.364;6.580;2022-08-01T09:00:14;101656.88;;;18.25;95.08
60307;BME280;46155;52.364;6.580;2022-08-01T09:02:45;101651.69;;;18.28;94.66
60307;BME280;46155;52.364;6.580;2022-08-01T09:05:12;101653.72;;;18.34;95.91
60307;BME280;46155;52.364;6.580;2022-08-01T09:07:38;101651.19;;;18.37;94.87
60307;BME280;46155;52.364;6.580;2022-08-01T09:10:04;101654.81;;;18.39;96.18
60307;BME280;46155;52.364;6.580;2022-08-01T09:12:29;101657.66;;;18.44;94.67
60307;BME280;46155;52.364;6.580;2022-08-01T09:14:55;101660.38;;;18.66;96.10
60307;BME280;46155;52.364;6.580;2022-08-01T09:17:20;101662.03;;;18.85;93.06
60307;BME280;46155;52.364;6.580;2022-08-01T09:19:54;101661.00;;;19.03;93.40
60307;BME280;46155;52.364;6.580;2022-08-01T09:22:22;101670.56;;;19.20;91.93
60307;BME280;46155;52.364;6.580;2022-08-01T09:25:04;101664.84;;;19.09;91.35
60307;BME280;46155;52.364;6.580;2022-08-01T09:27:30;101669.94;;;19.05;91.77
60307;BME280;46155;52.364;6.580;2022-08-01T09:32:59;101677.47;;;18.92;93.12
60307;BME280;46155;52.364;6.580;2022-08-01T09:35:31;101671.88;;;19.09;93.49
60307;BME280;46155;52.364;6.580;2022-08-01T09:38:25;101669.22;;;19.32;90.38
60307;BME280;46155;52.364;6.580;2022-08-01T09:40:56;101668.72;;;19.42;88.87
60307;BME280;46155;52.364;6.580;2022-08-01T09:43:27;101680.41;;;19.46;86.79
60307;BME280;46155;52.364;6.580;2022-08-01T09:45:53;101670.50;;;19.41;86.91
60307;BME280;46155;52.364;6.580;2022-08-01T09:48:20;101675.25;;;19.50;87.49
60307;BME280;46155;52.364;6.580;2022-08-01T09:50:49;101673.31;;;19.46;88.74
60307;BME280;46155;52.364;6.580;2022-08-01T09:53:15;101675.38;;;19.31;86.46
60307;BME280;46155;52.364;6.580;2022-08-01T09:55:41;101687.81;;;19.30;87.28
60307;BME280;46155;52.364;6.580;2022-08-01T09:58:06;101686.53;;;19.20;86.84
60307;BME280;46155;52.364;6.580;2022-08-01T10:00:33;101686.19;;;19.11;87.02
60307;BME280;46155;52.364;6.580;2022-08-01T10:03:00;101686.28;;;19.14;86.81
60307;BME280;46155;52.364;6.580;2022-08-01T10:05:43;101684.13;;;19.04;83.54
60307;BME280;46155;52.364;6.580;2022-08-01T10:08:09;101687.75;;;19.06;83.85
60307;BME280;46155;52.364;6.580;2022-08-01T10:10:35;101683.97;;;19.01;79.87
60307;BME280;46155;52.364;6.580;2022-08-01T10:13:01;101673.09;;;18.95;81.28
60307;BME280;46155;52.364;6.580;2022-08-01T10:15:27;101684.25;;;19.07;79.56
60307;BME280;46155;52.364;6.580;2022-08-01T10:17:56;101682.84;;;19.17;82.23
60307;BME280;46155;52.364;6.580;2022-08-01T10:20:29;101690.41;;;19.29;81.26
60307;BME280;46155;52.364;6.580;2022-08-01T10:22:58;101697.84;;;19.37;82.35
60307;BME280;46155;52.364;6.580;2022-08-01T10:25:27;101686.00;;;19.53;84.17
60307;BME280;46155;52.364;6.580;2022-08-01T10:27:53;101684.88;;;19.69;82.20
60307;BME280;46155;52.364;6.580;2022-08-01T10:30:22;101686.38;;;19.63;79.18
60307;BME280;46155;52.364;6.580;2022-08-01T10:32:49;101689.19;;;19.43;76.86
60307;BME280;46155;52.364;6.580;2022-08-01T10:35:15;101692.16;;;19.51;76.95
60307;BME280;46155;52.364;6.580;2022-08-01T10:37:45;101688.09;;;19.60;75.85
60307;BME280;46155;52.364;6.580;2022-08-01T10:40:16;101697.69;;;19.80;74.98
60307;BME280;46155;52.364;6.580;2022-08-01T10:42:43;101699.13;;;19.94;73.42
60307;BME280;46155;52.364;6.580;2022-08-01T10:45:09;101705.63;;;20.02;70.01
60307;BME280;46155;52.364;6.580;2022-08-01T10:50:40;101700.06;;;20.20;72.70
60307;BME280;46155;52.364;6.580;2022-08-01T10:53:08;101705.41;;;20.46;70.39
60307;BME280;46155;52.364;6.580;2022-08-01T11:00:48;101707.59;;;20.32;71.49
60307;BME280;46155;52.364;6.580;2022-08-01T11:03:13;101692.69;;;20.64;70.46
60307;BME280;46155;52.364;6.580;2022-08-01T11:05:40;101708.41;;;20.81;71.19
60307;BME280;46155;52.364;6.580;2022-08-01T11:08:21;101697.25;;;20.94;68.98
60307;BME280;46155;52.364;6.580;2022-08-01T11:10:46;101686.72;;;20.99;69.25
60307;BME280;46155;52.364;6.580;2022-08-01T11:13:12;101689.56;;;21.04;65.28
60307;BME280;46155;52.364;6.580;2022-08-01T11:15:39;101686.09;;;21.08;65.21
60307;BME280;46155;52.364;6.580;2022-08-01T11:20:56;101691.84;;;21.20;63.35
60307;BME280;46155;52.364;6.580;2022-08-01T11:23:23;101696.31;;;20.92;66.01
60307;BME280;46155;52.364;6.580;2022-08-01T11:33:07;101706.16;;;20.68;63.72
60307;BME280;46155;52.364;6.580;2022-08-01T11:35:34;101694.50;;;20.91;63.66
60307;BME280;46155;52.364;6.580;2022-08-01T11:38:22;101692.56;;;21.14;65.80
60307;BME280;46155;52.364;6.580;2022-08-01T11:41:09;101693.69;;;20.94;62.75
60307;BME280;46155;52.364;6.580;2022-08-01T11:43:35;101694.59;;;20.41;64.07
60307;BME280;46155;52.364;6.580;2022-08-01T11:46:00;101693.34;;;20.32;65.04
60307;BME280;46155;52.364;6.580;2022-08-01T11:48:27;101697.94;;;20.36;65.45
60307;BME280;46155;52.364;6.580;2022-08-01T11:50:57;101699.09;;;20.44;67.95
60307;BME280;46155;52.364;6.580;2022-08-01T11:53:22;101697.19;;;20.66;65.57
60307;BME280;46155;52.364;6.580;2022-08-01T11:55:50;101705.84;;;20.58;65.29
60307;BME280;46155;52.364;6.580;2022-08-01T11:58:21;101704.56;;;20.73;64.83
60307;BME280;46155;52.364;6.580;2022-08-01T12:00:54;101708.41;;;20.81;63.22
60307;BME280;46155;52.364;6.580;2022-08-01T12:03:31;101696.88;;;21.09;64.56
60307;BME280;46155;52.364;6.580;2022-08-01T12:05:58;101698.91;;;21.18;63.82
60307;BME280;46155;52.364;6.580;2022-08-01T12:08:25;101712.22;;;21.17;62.60
60307;BME280;46155;52.364;6.580;2022-08-01T12:10:51;101704.03;;;21.12;62.30
60307;BME280;46155;52.364;6.580;2022-08-01T12:13:16;101707.09;;;21.24;61.30
60307;BME280;46155;52.364;6.580;2022-08-01T12:15:43;101707.44;;;20.79;57.55
60307;BME280;46155;52.364;6.580;2022-08-01T12:18:10;101714.44;;;20.75;60.71
60307;BME280;46155;52.364;6.580;2022-08-01T12:20:37;101710.47;;;20.90;60.99
60307;BME280;46155;52.364;6.580;2022-08-01T12:23:07;101712.75;;;20.53;58.91
60307;BME280;46155;52.364;6.580;2022-08-01T12:25:34;101715.81;;;20.64;59.70
60307;BME280;46155;52.364;6.580;2022-08-01T12:28:01;101707.25;;;20.73;60.22
60307;BME280;46155;52.364;6.580;2022-08-01T12:30:27;101705.19;;;20.91;61.15
60307;BME280;46155;52.364;6.580;2022-08-01T12:32:55;101707.09;;;20.95;57.67
60307;BME280;46155;52.364;6.580;2022-08-01T12:35:25;101712.22;;;20.89;56.65
60307;BME280;46155;52.364;6.580;2022-08-01T12:37:53;101721.28;;;20.94;55.87
60307;BME280;46155;52.364;6.580;2022-08-01T12:42:50;101711.78;;;21.31;57.26
60307;BME280;46155;52.364;6.580;2022-08-01T12:45:17;101721.88;;;21.42;57.25
60307;BME280;46155;52.364;6.580;2022-08-01T12:47:43;101712.41;;;21.52;58.65
60307;BME280;46155;52.364;6.580;2022-08-01T12:50:15;101709.03;;;21.57;58.41
60307;BME280;46155;52.364;6.580;2022-08-01T12:52:41;101711.94;;;21.65;57.46
60307;BME280;46155;52.364;6.580;2022-08-01T12:55:20;101713.66;;;21.63;56.22
60307;BME280;46155;52.364;6.580;2022-08-01T12:57:48;101715.19;;;21.55;56.84
60307;BME280;46155;52.364;6.580;2022-08-01T13:00:23;101710.84;;;21.58;59.15
60307;BME280;46155;52.364;6.580;2022-08-01T13:02:59;101715.28;;;21.58;58.31
60307;BME280;46155;52.364;6.580;2022-08-01T13:05:24;101711.84;;;21.92;57.15
60307;BME280;46155;52.364;6.580;2022-08-01T13:07:50;101713.78;;;21.98;56.51
60307;BME280;46155;52.364;6.580;2022-08-01T13:10:30;101713.56;;;21.90;56.44
60307;BME280;46155;52.364;6.580;2022-08-01T13:12:58;101707.09;;;21.82;55.66
60307;BME280;46155;52.364;6.580;2022-08-01T13:15:31;101707.91;;;22.11;55.14
60307;BME280;46155;52.364;6.580;2022-08-01T13:17:59;101710.88;;;22.22;53.91
60307;BME280;46155;52.364;6.580;2022-08-01T13:20:34;101702.00;;;22.23;56.04
60307;BME280;46155;52.364;6.580;2022-08-01T13:23:16;101695.34;;;22.07;56.82
60307;BME280;46155;52.364;6.580;2022-08-01T13:25:55;101698.78;;;22.03;57.13
60307;BME280;46155;52.364;6.580;2022-08-01T13:28:25;101697.13;;;22.08;57.29
60307;BME280;46155;52.364;6.580;2022-08-01T13:30:55;101695.09;;;21.99;56.89
60307;BME280;46155;52.364;6.580;2022-08-01T13:33:23;101696.16;;;22.05;57.83
60307;BME280;46155;52.364;6.580;2022-08-01T13:35:52;101687.78;;;21.92;56.56
60307;BME280;46155;52.364;6.580;2022-08-01T13:38:18;101699.00;;;21.79;56.31
60307;BME280;46155;52.364;6.580;2022-08-01T13:40:44;101695.91;;;21.65;56.20
60307;BME280;46155;52.364;6.580;2022-08-01T13:43:10;101702.31;;;21.72;57.21
60307;BME280;46155;52.364;6.580;2022-08-01T13:45:35;101692.34;;;21.96;57.38
60307;BME280;46155;52.364;6.580;2022-08-01T13:48:01;101691.63;;;22.02;57.45
60307;BME280;46155;52.364;6.580;2022-08-01T13:50:27;101694.66;;;21.84;55.99
60307;BME280;46155;52.364;6.580;2022-08-01T13:52:52;101701.19;;;21.94;55.57
60307;BME280;46155;52.364;6.580;2022-08-01T13:55:18;101692.81;;;21.81;55.07
60307;BME280;46155;52.364;6.580;2022-08-01T13:57:43;101694.72;;;21.55;55.70
60307;BME280;46155;52.364;6.580;2022-08-01T14:00:09;101692.78;;;21.51;56.08
60307;BME280;46155;52.364;6.580;2022-08-01T14:02:35;101687.16;;;21.42;56.69
60307;BME280;46155;52.364;6.580;2022-08-01T14:05:00;101694.50;;;21.49;57.64
60307;BME280;46155;52.364;6.580;2022-08-01T14:07:26;101684.03;;;21.55;56.38
60307;BME280;46155;52.364;6.580;2022-08-01T14:09:51;101693.19;;;21.63;56.02
60307;BME280;46155;52.364;6.580;2022-08-01T14:12:17;101690.66;;;21.68;55.73
60307;BME280;46155;52.364;6.580;2022-08-01T14:14:42;101680.78;;;21.65;55.92
60307;BME280;46155;52.364;6.580;2022-08-01T14:17:07;101676.84;;;21.53;55.58
60307;BME280;46155;52.364;6.580;2022-08-01T14:19:33;101681.88;;;21.72;56.02
60307;BME280;46155;52.364;6.580;2022-08-01T14:21:58;101684.22;;;21.61;54.59
60307;BME280;46155;52.364;6.580;2022-08-01T14:24:23;101679.72;;;21.60;55.11
60307;BME280;46155;52.364;6.580;2022-08-01T14:26:49;101681.00;;;21.73;55.38
60307;BME280;46155;52.364;6.580;2022-08-01T14:29:15;101682.09;;;21.51;55.47
60307;BME280;46155;52.364;6.580;2022-08-01T14:31:40;101681.38;;;21.55;54.22
60307;BME280;46155;52.364;6.580;2022-08-01T14:34:05;101682.03;;;21.78;53.87
60307;BME280;46155;52.364;6.580;2022-08-01T14:36:31;101676.53;;;21.72;54.11
60307;BME280;46155;52.364;6.580;2022-08-01T14:38:56;101681.31;;;21.84;52.79
60307;BME280;46155;52.364;6.580;2022-08-01T14:41:22;101670.09;;;21.65;53.78
60307;BME280;46155;52.364;6.580;2022-08-01T14:43:47;101677.88;;;21.58;53.28
60307;BME280;46155;52.364;6.580;2022-08-01T14:46:12;101673.34;;;21.55;55.14
60307;BME280;46155;52.364;6.580;2022-08-01T14:48:38;101667.03;;;21.53;54.23
60307;BME280;46155;52.364;6.580;2022-08-01T14:51:03;101671.53;;;21.54;53.76
60307;BME280;46155;52.364;6.580;2022-08-01T14:53:30;101669.59;;;21.79;52.95
60307;BME280;46155;52.364;6.580;2022-08-01T14:55:55;101673.72;;;21.67;54.16
60307;BME280;46155;52.364;6.580;2022-08-01T14:58:20;101672.72;;;21.64;52.84
60307;BME280;46155;52.364;6.580;2022-08-01T15:00:46;101668.09;;;21.58;54.90
60307;BME280;46155;52.364;6.580;2022-08-01T15:03:11;101668.91;;;21.56;54.05
60307;BME280;46155;52.364;6.580;2022-08-01T15:05:37;101675.38;;;21.64;52.51
60307;BME280;46155;52.364;6.580;2022-08-01T15:08:03;101667.03;;;21.53;52.31
60307;BME280;46155;52.364;6.580;2022-08-01T15:10:30;101672.44;;;21.55;52.66
60307;BME280;46155;52.364;6.580;2022-08-01T15:12:57;101672.16;;;21.76;50.83
60307;BME280;46155;52.364;6.580;2022-08-01T15:15:24;101669.16;;;21.95;51.54
60307;BME280;46155;52.364;6.580;2022-08-01T15:17:50;101658.56;;;22.00;48.68
60307;BME280;46155;52.364;6.580;2022-08-01T15:20:17;101667.03;;;22.17;48.13
60307;BME280;46155;52.364;6.580;2022-08-01T15:22:43;101669.56;;;22.11;49.65
60307;BME280;46155;52.364;6.580;2022-08-01T15:25:09;101663.88;;;21.98;48.62
60307;BME280;46155;52.364;6.580;2022-08-01T15:27:34;101664.81;;;21.99;47.98
60307;BME280;46155;52.364;6.580;2022-08-01T15:29:59;101671.53;;;22.18;46.80
60307;BME280;46155;52.364;6.580;2022-08-01T15:32:24;101672.00;;;22.01;47.06
60307;BME280;46155;52.364;6.580;2022-08-01T15:34:50;101664.06;;;22.05;46.71
60307;BME280;46155;52.364;6.580;2022-08-01T15:37:15;101645.44;;;22.08;44.46
60307;BME280;46155;52.364;6.580;2022-08-01T15:39:41;101653.59;;;22.14;42.15
60307;BME280;46155;52.364;6.580;2022-08-01T15:42:10;101664.22;;;22.11;43.03
60307;BME280;46155;52.364;6.580;2022-08-01T15:44:35;101656.00;;;22.03;44.45
60307;BME280;46155;52.364;6.580;2022-08-01T15:47:02;101660.31;;;22.31;43.14
60307;BME280;46155;52.364;6.580;2022-08-01T15:49:28;101663.72;;;22.24;43.52
60307;BME280;46155;52.364;6.580;2022-08-01T15:51:53;101654.03;;;22.31;43.08
60307;BME280;46155;52.364;6.580;2022-08-01T15:54:19;101651.16;;;22.22;44.35
60307;BME280;46155;52.364;6.580;2022-08-01T15:56:45;101651.28;;;22.28;43.86
60307;BME280;46155;52.364;6.580;2022-08-01T15:59:11;101650.19;;;22.19;44.78
60307;BME280;46155;52.364;6.580;2022-08-01T16:01:37;101656.13;;;22.08;44.25
60307;BME280;46155;52.364;6.580;2022-08-01T16:04:03;101657.78;;;22.04;46.29
60307;BME280;46155;52.364;6.580;2022-08-01T16:06:29;101644.94;;;21.89;45.24
60307;BME280;46155;52.364;6.580;2022-08-01T16:08:54;101663.13;;;22.04;45.49